Das ist die Wetter- und Hausseite der Bittkau's aus Magdeburg Ottersleben


Hier werden aktuelle Daten aus der privaten Wetterstation und

andere lokale Wettervorhersagen bereitgestellt




Thunder radar more information blitzortung!


Rain radar more information rain snow radar



Es ist keine erhöhte Aufmerksamkeit aufgrund des Wetters notwendig.    Es gibt keine Warnungen.

METAR-Meldungen aus der Umgebung

   
EDDP - Leipzig
Aktualisierung: 19.11.2019 4:50
Stark bewölkt  
Stark bewölkt  
   Wind: SSO 7.4 km/h
Wind: SSO 7.4 km/h
Temperatur: 6°C
Gefühlt: 4°C
Taupunkt: 4°C
Luftfeuchte: 87%
Luftdruck: 1017 hPa
Bewölkt: Stark bewölkt
Sichtbarkeit: More than 10 km
Bewölkung: Stark bewölkt 670.6 m
EDDP 191550Z 16004KT 9999 BKN022 06/04 Q1017 NOSIG
EDDC - Dresden
Aktualisierung: 19.11.2019 4:50
Klar  
Klar  
   Wind: Norden 5.6 km/h
Wind: Norden 5.6 km/h
Temperatur: 6°C
Gefühlt: 5°C
Taupunkt: 2°C
Luftfeuchte: 76%
Luftdruck: 1017 hPa
Sichtbarkeit: More than 10 km
Bewölkung: Klar
EDDC 191550Z 35003KT CAVOK 06/02 Q1017 NOSIG
EDDE - Erfurt
Aktualisierung: 19.11.2019 4:50
Teilweise bewölkt  
Teilweise bewölkt  
   Wind: Westen 7.4 km/h
Wind: Westen 7.4 km/h
Temperatur: 4°C
Gefühlt: 2°C
Taupunkt: 1°C
Luftfeuchte: 81%
Luftdruck: 1017 hPa
Bewölkt: Teilweise bewölkt
Sichtbarkeit: More than 10 km
Bewölkung: Teilweise bewölkt 792.5 m
EDDE 191550Z 28004KT 9999 SCT026 04/01 Q1017 NOSIG
EDVE - Braunschweig
Aktualisierung: 19.11.2019 4:50
Bewölkt  
Bewölkt  
   Wind: Westen 9.3 km/h
Wind: Westen 9.3 km/h
Temperatur: 5°C
Gefühlt: 3°C
Taupunkt: 2°C
Luftfeuchte: 81%
Luftdruck: 1017 hPa
Bewölkt: Bewölkt
Sichtbarkeit: More than 10 km
Bewölkung: Stark bewölkt 701 m,
Stark bewölkt 944.9 m,
Bewölkt 1127.8 m
EDVE 191550Z 28005KT 9999 BKN023 BKN031 OVC037 05/02 Q1017
EDDV - Hannover
Aktualisierung: 19.11.2019 4:50
Stark bewölkt  
Stark bewölkt  
   Wind: SW 9.3 km/h
Wind: SW 9.3 km/h
Temperatur: 5°C
Gefühlt: 3°C
Taupunkt: 3°C
Luftfeuchte: 87%
Luftdruck: 1017 hPa
Bewölkt: Stark bewölkt
Sichtbarkeit: More than 10 km
Bewölkung: Stark bewölkt 853.4 m
EDDV 191550Z 23005KT 9999 BKN028 05/03 Q1017 NOSIG
EDDT - Berlin
Aktualisierung: 19.11.2019 4:50
Klar  
Klar  
   Wind: Süden 9.3 km/h
Wind: Süden 9.3 km/h
Temperatur: 7°C
Gefühlt: 5°C
Taupunkt: 3°C
Luftfeuchte: 76%
Luftdruck: 1018 hPa
Sichtbarkeit: More than 10 km
Bewölkung: Klar
EDDT 191550Z 19005KT CAVOK 07/03 Q1018 NOSIG
EDDE - Schwerin
Aktualisierung: 19.11.2019 4:50
Teilweise bewölkt  
Teilweise bewölkt  
   Wind: Westen 7.4 km/h
Wind: Westen 7.4 km/h
Temperatur: 4°C
Gefühlt: 2°C
Taupunkt: 1°C
Luftfeuchte: 81%
Luftdruck: 1017 hPa
Bewölkt: Teilweise bewölkt
Sichtbarkeit: More than 10 km
Bewölkung: Teilweise bewölkt 792.5 m
EDDE 191550Z 28004KT 9999 SCT026 04/01 Q1017 NOSIG
EDHI - Hamburg
Aktualisierung: 19.11.2019 4:50
Teilweise bewölkt  
Teilweise bewölkt  
   Wind: SSW 13 km/h
Wind: SSW 13 km/h
Temperatur: 7°C
Gefühlt: 4°C
Taupunkt: 5°C
Luftfeuchte: 87%
Luftdruck: 1015 hPa
Bewölkt: Teilweise bewölkt
Sichtbarkeit: More than 10 km
Bewölkung: leicht bewölkt 731.5 m,
Teilweise bewölkt 914.4 m
EDHI 191550Z 21007KT 9999 FEW024 SCT030 07/05 Q1015
EDDK - Köln-Bonn
Aktualisierung: 19.11.2019 4:50
Teilweise bewölkt  
Teilweise bewölkt  
   Wind: variiert 1.9 km/h
Wind: variiert 1.9 km/h
Temperatur: 4°C
Taupunkt: 3°C
Luftfeuchte: 93%
Luftdruck: 1018 hPa
Bewölkt: Teilweise bewölkt
Sichtbarkeit: More than 10 km
Bewölkung: Teilweise bewölkt 853.4 m
EDDK 191550Z VRB01KT 9999 SCT028 04/03 Q1018 NOSIG
EDHL - Lübeck-Blankensee
Aktualisierung: 19.11.2019 4:50
leicht bewölkt  
leicht bewölkt  
   Wind: SSW 14.8 km/h
Wind: SSW 14.8 km/h
Temperatur: 7°C
Gefühlt: 4°C
Taupunkt: 5°C
Luftfeuchte: 87%
Luftdruck: 1015 hPa
Bewölkt: leicht bewölkt
Sichtbarkeit: More than 10 km
Bewölkung: leicht bewölkt 792.5 m
EDHL 191550Z 21008KT 9999 FEW026 07/05 Q1015
  

Script entwickelt von  Saratoga-weather.org Angepasst für das Template von  Weerstation Leuven

Sie finden die Wetterinfo auch auf:

Wetternetzwerk Deutschland

European Weather Network

Weather Underground

Regionalwetter-SA

wetter.com

wxforum.de

Genutzte Hardware, Software und WEB Anbieter:

Wetterstation
Ventus W928-Ultimate

Wetterprogramm
Meteohub

WetterComputer
RaspberryPI

Anbieter
WEB Provider One.com

Ventus W928-Ultimate

Meteohub

RaspberryPI

WEB Provider One.com